• Join FlightAware (Why Join?)
  • Login
  • US Flag 
04:55PM EDT


 

Airport Tracker/Info


-or-


 

Live Flight TrackerFlight Track Log ✈ SWA2147 ✈ 25-Apr-2013 ✈ KPHX - KMDW

Flight Track Log - Related Links

Times and Time Zones

All times are in EDT time to prevent confusion due to time zone crossing. See the SWA2147 flight status page for this flight to view local times or setup timezone preferences in your user account.

Time Position Orientation Groundspeed Altitude Reporting Facility
EDT Latitude Longitude Course Direction KTS MPH feet Rate Location/Type
06:16PM 33.4333 -112.0333 270° West 261 300 2,000  Level Phoenix TRACON
06:17PM 33.4333 -112.0667 270° West 179 206 3,100 2,100 Climbing Phoenix TRACON
06:18PM 33.4333 -112.1333 270° West 220 253 5,400 2,460 Climbing Phoenix TRACON
06:19PM 33.4667 -112.1833 309° West 254 292 8,100 2,400 Climbing Phoenix TRACON
06:20PM 33.5167 -112.1167 48° Northeast 312 359 10,600 2,100 Climbing Phoenix TRACON
06:21PM 33.5453 -112.0008 73° East 346 398 12,900 2,220 Climbing Albuquerque Center
06:22PM 33.5692 -111.8828 76° East 366 421 15,500 2,160 Climbing Albuquerque Center
06:23PM 33.5933 -111.7581 77° East 384 442 17,400 1,860 Climbing Albuquerque Center
06:24PM 33.6261 -111.5917 77° East 433 498 19,400 1,980 Climbing Albuquerque Center
06:25PM 33.6542 -111.4444 77° East 456 525 21,500 1,860 Climbing Albuquerque Center
06:26PM 33.6828 -111.2931 77° East 468 539 23,300 1,740 Climbing Albuquerque Center
06:27PM 33.7319 -111.1447 68° East 480 552 25,200 1,680 Climbing Albuquerque Center
06:28PM 33.7847 -110.9953 67° East 488 562 26,800 1,440 Climbing Albuquerque Center
06:29PM 33.8511 -110.8081 67° East 503 579 28,200 1,200 Climbing Albuquerque Center
06:30PM 33.9064 -110.6481 67° East 515 593 29,400 1,200 Climbing Albuquerque Center
06:31PM 33.9644 -110.4847 67° East 527 606 30,700 1,200 Climbing Albuquerque Center
06:32PM 34.0272 -110.3072 67° East 533 613 31,900 1,200 Climbing Albuquerque Center
06:33PM 34.0842 -110.1406 68° East 538 619 33,300 1,200 Climbing Albuquerque Center
06:34PM 34.1403 -109.9753 68° East 537 618 34,500 780 Climbing Albuquerque Center
06:35PM 34.2044 -109.7936 67° East 529 609 35,000 240 Climbing Albuquerque Center
06:36PM 34.2581 -109.6336 68° East 535 616 35,100 660 Climbing Albuquerque Center
06:37PM 34.3208 -109.4494 68° East 533 613 36,400 900 Climbing Albuquerque Center
06:39PM 34.3744 -109.2939 67° East 529 609 37,000 180 Climbing Albuquerque Center
06:41PM 34.4806 -108.9428 70° East 535 616 37,000  Level Albuquerque Center
06:42PM 34.5333 -108.7508 71° East 537 618 37,000  Level Albuquerque Center
06:43PM 34.5789 -108.5858 71° East 539 620 37,000  Level Albuquerque Center
06:44PM 34.6256 -108.4108 72° East 540 621 37,000  Level Albuquerque Center
06:45PM 34.6725 -108.2372 72° East 542 624 37,000  Level Albuquerque Center
06:46PM 34.7194 -108.0619 72° East 544 626 37,000  Level Albuquerque Center
06:47PM 34.7656 -107.8869 72° East 545 627 37,000  Level Albuquerque Center
06:48PM 34.8211 -107.6786 72° East 542 624 37,000  Level Albuquerque Center
06:49PM 34.8669 -107.5061 72° East 539 620 37,000  Level Albuquerque Center
06:50PM 34.9122 -107.3322 72° East 538 619 37,000  Level Albuquerque Center
06:51PM 34.9603 -107.1464 72° East 539 620 37,000  Level Albuquerque Center
06:52PM 35.0033 -106.9797 72° East 540 621 37,000  Level Albuquerque Center
06:53PM 35.0542 -106.7878 72° East 536 617 37,000  Level Albuquerque Center
06:54PM 35.1158 -106.6281 65° Northeast 542 624 37,000  Level Albuquerque Center
06:55PM 35.1778 -106.4564 66° East 554 638 37,000  Level Albuquerque Center
06:56PM 35.2419 -106.2900 65° Northeast 544 626 37,000  Level Albuquerque Center
06:57PM 35.3211 -106.1064 62° Northeast 530 610 37,000  Level Albuquerque Center
06:58PM 35.3947 -105.9356 62° Northeast 540 621 37,000  Level Albuquerque Center
06:59PM 35.4653 -105.7756 62° Northeast 546 628 37,000  Level Albuquerque Center
07:00PM 35.5333 -105.6117 63° Northeast 538 619 37,000  Level Albuquerque Center
07:01PM 35.5997 -105.4483 63° Northeast 532 612 37,000  Level Albuquerque Center
07:02PM 35.6686 -105.2822 63° Northeast 535 616 37,000  Level Albuquerque Center
07:03PM 35.7350 -105.1186 63° Northeast 532 612 37,000  Level Albuquerque Center
07:04PM 35.8131 -104.9275 63° Northeast 529 609 37,000  Level Albuquerque Center
07:05PM 35.8797 -104.7664 63° Northeast 526 605 37,000  Level Albuquerque Center
07:06PM 35.9486 -104.6006 63° Northeast 531 611 37,000  Level Albuquerque Center
07:07PM 36.0142 -104.4372 64° Northeast 526 605 37,000  Level Albuquerque Center
07:08PM 36.0806 -104.2717 64° Northeast 528 608 37,000  Level Albuquerque Center
07:09PM 36.1475 -104.1067 63° Northeast 531 611 37,000  Level Albuquerque Center
07:10PM 36.2142 -103.9447 63° Northeast 525 604 37,000  Level Albuquerque Center
07:12PM 36.2800 -103.7792 64° Northeast 528 608 37,000  Level Albuquerque Center
07:13PM 36.3450 -103.6119 64° Northeast 531 611 37,000  Level Albuquerque Center
07:14PM 36.4108 -103.4450 64° Northeast 532 612 37,000  Level Albuquerque Center
07:15PM 36.4761 -103.2781 64° Northeast 533 613 37,000  Level Albuquerque Center
07:16PM 36.5497 -103.0861 64° Northeast 525 604 37,000  Level Albuquerque Center
07:17PM 36.6142 -102.9219 64° Northeast 523 602 37,000  Level Albuquerque Center
07:18PM 36.6731 -102.7669 65° Northeast 523 602 37,000  Level Albuquerque Center
07:19PM 36.7439 -102.5842 64° Northeast 525 604 37,000  Level Albuquerque Center
07:20PM 36.7978 -102.4369 65° Northeast 534 615 37,000  Level Albuquerque Center
07:21PM 36.8606 -102.2722 64° Northeast 530 610 37,000  Level Albuquerque Center
07:22PM 36.9331 -102.0842 64° Northeast 533 613 37,000  Level Albuquerque Center
07:23PM 37.0025 -101.8969 65° Northeast 533 613 37,000  Level Albuquerque Center
07:24PM 37.0617 -101.7336 66° East 537 618 37,000  Level Albuquerque Center
07:25PM 37.1219 -101.5742 65° Northeast 535 616 37,000  Level Albuquerque Center
07:25PM 37.1611 -101.4644 66° East 536 617 37,000  Level Kansas City Center
07:26PM 37.2203 -101.3025 65° Northeast 536 617 37,000  Level Kansas City Center
07:27PM 37.2889 -101.1156 65° Northeast 533 613 37,000  Level Kansas City Center
07:29PM 37.3475 -100.9550 65° Northeast 533 613 37,000  Level Kansas City Center
07:30PM 37.4147 -100.7675 66° East 533 613 37,000  Level Kansas City Center
07:31PM 37.4731 -100.6061 65° Northeast 536 617 37,000  Level Kansas City Center
07:32PM 37.5408 -100.4169 66° East 536 617 37,000  Level Kansas City Center
07:33PM 37.5981 -100.2539 66° East 536 617 37,000  Level Kansas City Center
07:34PM 37.6669 -100.0625 65° Northeast 538 619 37,000  Level Kansas City Center
07:35PM 37.7250 -99.8994 66° East 536 617 37,000  Level Kansas City Center
07:36PM 37.7908 -99.7072 67° East 534 615 37,000  Level Kansas City Center
07:37PM 37.8481 -99.5417 66° East 537 618 37,000  Level Kansas City Center
07:38PM 37.9017 -99.3792 67° East 536 617 37,000  Level Kansas City Center
07:39PM 37.9736 -99.1700 66° East 538 619 37,000  Level Kansas City Center
07:40PM 38.0322 -98.9944 67° East 539 620 37,000  Level Kansas City Center
07:41PM 38.0922 -98.8203 66° East 538 619 37,000  Level Kansas City Center
07:42PM 38.1528 -98.6439 66° East 543 625 37,000  Level Kansas City Center
07:43PM 38.2119 -98.4686 67° East 537 618 37,000  Level Kansas City Center
07:44PM 38.2703 -98.2933 67° East 535 616 37,000  Level Kansas City Center
07:45PM 38.3278 -98.1161 67° East 536 617 37,000  Level Kansas City Center
07:46PM 38.3861 -97.9386 67° East 538 619 37,000  Level Kansas City Center
07:47PM 38.4564 -97.7256 67° East 539 620 37,000  Level Kansas City Center
07:48PM 38.5133 -97.5464 68° East 541 623 37,000  Level Kansas City Center
07:49PM 38.5708 -97.3694 67° East 539 620 37,000  Level Kansas City Center
07:50PM 38.6283 -97.1908 68° East 541 623 37,000  Level Kansas City Center
07:51PM 38.6844 -97.0122 68° East 541 623 37,000  Level Kansas City Center
07:52PM 38.7406 -96.8339 68° East 538 619 37,000  Level Kansas City Center
07:53PM 38.7969 -96.6564 68° East 538 619 37,000  Level Kansas City Center
07:54PM 38.8611 -96.4475 68° East 541 623 37,000  Level Kansas City Center
07:55PM 38.9122 -96.2747 69° East 541 623 37,000  Level Kansas City Center
07:56PM 38.9744 -96.0744 68° East 541 623 37,000  Level Kansas City Center
07:57PM 39.0281 -95.9017 68° East 542 624 37,000  Level Kansas City Center
07:59PM 39.0894 -95.6981 69° East 547 629 37,000  Level Kansas City Center
08:00PM 39.1414 -95.5231 69° East 547 629 37,000  Level Kansas City Center
08:01PM 39.2017 -95.3208 69° East 543 625 37,000  Level Kansas City Center
08:02PM 39.2550 -95.1406 69° East 540 621 37,000  Level Kansas City Center
08:03PM 39.3081 -94.9628 69° East 535 616 37,000  Level Kansas City Center
08:04PM 39.3586 -94.7911 69° East 538 619 37,000  Level Kansas City Center
08:05PM 39.4164 -94.5903 70° East 535 616 37,000  Level Kansas City Center
08:06PM 39.4658 -94.4197 69° East 530 610 37,000  Level Kansas City Center
08:07PM 39.5239 -94.2172 70° East 536 617 37,000  Level Kansas City Center
08:08PM 39.5731 -94.0442 70° East 536 617 37,000  Level Kansas City Center
08:09PM 39.6306 -93.8414 70° East 535 616 37,000  Level Kansas City Center
08:10PM 39.6833 -93.6514 70° East 539 620 37,000  Level Kansas City Center
08:11PM 39.7336 -93.4697 70° East 540 621 37,000  Level Kansas City Center
08:12PM 39.7842 -93.2933 69° East 530 610 37,000  Level Kansas City Center
08:13PM 39.8328 -93.1147 70° East 531 611 37,000  Level Kansas City Center
08:14PM 39.8808 -92.9347 71° East 532 612 37,000  Level Kansas City Center
08:15PM 39.9381 -92.7211 71° East 530 610 37,000  Level Kansas City Center
08:16PM 39.9861 -92.5431 71° East 533 613 37,000  Level Kansas City Center
08:17PM 40.0317 -92.3686 71° East 524 603 37,000  Level Kansas City Center
08:18PM 40.0792 -92.1933 70° East 523 602 37,000  Level Kansas City Center
08:19PM 40.1336 -91.9792 72° East 524 603 37,000  Level Kansas City Center
08:20PM 40.1811 -91.8019 71° East 524 603 37,000  Level Kansas City Center
08:21PM 40.2256 -91.6264 72° East 519 597 37,000 -120 Level Kansas City Center
08:22PM 40.2703 -91.4500 72° East 517 595 36,800 -1,440 Descending Kansas City Center
08:23PM 40.3167 -91.2692 71° East 514 592 34,100 -2,640 Descending Kansas City Center
08:24PM 40.3622 -91.0894 72° East 518 596 31,500 -1,740 Descending Kansas City Center
08:25PM 40.3978 -90.9489 72° East 511 588 31,000 -300 Descending Chicago Center
08:26PM 40.4408 -90.7736 72° East 506 582 31,000 -300 Level Chicago Center
08:27PM 40.4919 -90.5719 72° East 483 556 30,400 -840 Descending Chicago Center
08:28PM 40.5300 -90.4158 72° East 455 524 29,300 -1,020 Descending Chicago Center
08:29PM 40.5664 -90.2656 72° East 436 502 28,300 -1,020 Descending Chicago Center
08:30PM 40.6011 -90.1192 73° East 431 496 27,200 -1,500 Descending Chicago Center
08:31PM 40.6422 -89.9472 72° East 412 474 25,200 -1,800 Descending Chicago Center
08:32PM 40.6753 -89.8067 73° East 405 466 23,500 -1,620 Descending Chicago Center
08:33PM 40.7267 -89.6856 61° Northeast 382 440 21,900 -1,500 Descending Chicago Center
08:34PM 40.7769 -89.5700 60° Northeast 366 421 20,400 -1,500 Descending Chicago Center
08:35PM 40.8608 -89.4903 36° Northeast 321 369 18,900 -1,200 Descending Chicago Center
08:36PM 40.9344 -89.4394 28° Northeast 323 372 18,000 -720 Descending Chicago Center
08:37PM 40.9725 -89.3203 67° East 352 405 17,400 -840 Descending Chicago Center
08:38PM 41.0103 -89.2050 66° East 344 396 16,300 -1,020 Descending Chicago Center
08:40PM 41.0683 -89.1078 52° Northeast 330 380 15,300 -1,020 Descending Chicago Center
08:41PM 41.1247 -89.0161 51° Northeast 324 373 14,300 -1,260 Descending Chicago Center
08:42PM 41.1800 -88.9264 51° Northeast 319 367 12,800 -1,560 Descending Chicago Center
08:43PM 41.2436 -88.8203 51° Northeast 309 356 11,100 -1,380 Descending Chicago Center
08:44PM 41.2933 -88.7347 52° Northeast 297 342 10,000 -1,260 Descending Chicago Center
08:45PM 41.3433 -88.6569 49° Northeast 284 327 8,600 -1,320 Descending Chicago Center
08:46PM 41.3917 -88.5747 52° Northeast 282 325 7,300 -1,260 Descending Chicago Center
08:47PM 41.4317 -88.4844 59° Northeast 285 328 6,000 -1,140 Descending Chicago Center
08:48PM 41.4647 -88.3658 70° East 286 329 5,000 -480 Descending Chicago Center
08:49PM 41.4933 -88.2700 68° East 282 325 5,000  Level Chicago Center
08:50PM 41.5217 -88.1756 68° East 277 319 5,000  Level Chicago Center
08:51PM 41.5508 -88.0800 68° East 275 316 5,000  Level Chicago Center
08:52PM 41.5575 -87.9783 85° East 275 316 5,000  Level Chicago Center
08:53PM 41.5608 -87.8778 87° East 272 313 5,000 -540 Level Chicago Center
08:54PM 41.5650 -87.7783 87° East 270 311 3,900 -840 Descending Chicago Center
08:55PM 41.5781 -87.6878 79° East 261 300 3,300 -480 Descending Chicago Center
08:56PM 41.6111 -87.6056 62° Northeast 227 261 3,000 -180 Descending Chicago Center
08:57PM 41.6522 -87.5986 North 197 227 3,000 -300 Level Chicago Center
08:58PM 41.7000 -87.6333 332° Northwest 173 199 2,500 -480 Descending Chicago TRACON
08:59PM 41.7333 -87.6667 323° Northwest 149 171 2,100 -600 Descending Chicago TRACON
09:00PM 41.7500 -87.7167 294° West 138 159 1,300 -780 Descending Chicago TRACON